UAL674 KIAD-KCLE
Flight info
| Callsign | UAL674 |
|---|---|
| Flight time | 0h 48m |
| Altitude | 32000 |
| Route | JERES2 JERES J211 JST UPPRR TRYBE4 |
| Aircraft | B738/M-SDE2E3FGHIRWXY/LB1 |
Departure
| Time | 2026-05-04 19:37 |
|---|---|
| Airport | Washington Dulles International Airport (KIAD) |
Arrival
| Time | 2026-05-04 20:25 |
|---|---|
| Airport | Cleveland Hopkins International Airport (KCLE) |
| Time | Latitude | Longitude | Altitude | Speed | Heading |
|---|---|---|---|---|---|
| 2026-05-04 19:10 | 38.94496 | -77.45337 | 302 ft | 0 kts | 3° |
| 2026-05-04 19:27 | 38.94476 | -77.45338 | 303 ft | 4 kts | 3° |
| 2026-05-04 19:27 | 38.94449 | -77.45340 | 299 ft | 4 kts | 3° |
| 2026-05-04 19:28 | 38.94429 | -77.45340 | 299 ft | 4 kts | 339° |
| 2026-05-04 19:28 | 38.94416 | -77.45322 | 299 ft | 3 kts | 271° |
| 2026-05-04 19:28 | 38.94416 | -77.45292 | 299 ft | 1 kts | 271° |
| 2026-05-04 19:28 | 38.94415 | -77.45292 | 299 ft | 0 kts | 271° |
| 2026-05-04 19:29 | 38.94416 | -77.45292 | 299 ft | 0 kts | 271° |
| 2026-05-04 19:31 | 38.94416 | -77.45315 | 299 ft | 5 kts | 271° |
| 2026-05-04 19:31 | 38.94416 | -77.45359 | 299 ft | 5 kts | 271° |
| 2026-05-04 19:31 | 38.94417 | -77.45404 | 299 ft | 5 kts | 271° |
| 2026-05-04 19:31 | 38.94417 | -77.45450 | 299 ft | 6 kts | 271° |
| 2026-05-04 19:32 | 38.94418 | -77.45518 | 299 ft | 9 kts | 271° |
| 2026-05-04 19:32 | 38.94403 | -77.45601 | 302 ft | 10 kts | 218° |
| 2026-05-04 19:32 | 38.94334 | -77.45615 | 299 ft | 10 kts | 180° |
| 2026-05-04 19:32 | 38.94265 | -77.45615 | 302 ft | 10 kts | 180° |
| 2026-05-04 19:33 | 38.94196 | -77.45616 | 299 ft | 11 kts | 179° |
| 2026-05-04 19:33 | 38.94106 | -77.45616 | 300 ft | 15 kts | 180° |
| 2026-05-04 19:33 | 38.94006 | -77.45617 | 303 ft | 14 kts | 180° |
| 2026-05-04 19:33 | 38.93906 | -77.45620 | 303 ft | 14 kts | 181° |
| 2026-05-04 19:34 | 38.93810 | -77.45621 | 299 ft | 14 kts | 181° |
| 2026-05-04 19:34 | 38.93709 | -77.45624 | 299 ft | 15 kts | 186° |
| 2026-05-04 19:34 | 38.93610 | -77.45661 | 300 ft | 15 kts | 176° |
| 2026-05-04 19:34 | 38.93555 | -77.45562 | 300 ft | 14 kts | 123° |
| 2026-05-04 19:35 | 38.93470 | -77.45553 | 302 ft | 12 kts | 201° |
| 2026-05-04 19:35 | 38.93454 | -77.45560 | 298 ft | 0 kts | 201° |
| 2026-05-04 19:35 | 38.93447 | -77.45564 | 302 ft | 4 kts | 201° |
| 2026-05-04 19:35 | 38.93393 | -77.45596 | 301 ft | 11 kts | 214° |
| 2026-05-04 19:36 | 38.93386 | -77.45682 | 301 ft | 10 kts | 292° |
| 2026-05-04 19:36 | 38.93444 | -77.45878 | 298 ft | 53 kts | 291° |
| 2026-05-04 19:36 | 38.93655 | -77.46595 | 302 ft | 117 kts | 290° |
| 2026-05-04 19:36 | 38.94009 | -77.47790 | 352 ft | 163 kts | 290° |
| 2026-05-04 19:37 | 38.94435 | -77.49169 | 961 ft | 170 kts | 294° |
| 2026-05-04 19:37 | 38.95160 | -77.50414 | 1620 ft | 178 kts | 311° |
| 2026-05-04 19:37 | 38.96011 | -77.51599 | 2222 ft | 190 kts | 310° |
| 2026-05-04 19:37 | 38.96940 | -77.52982 | 2565 ft | 214 kts | 308° |
| 2026-05-04 19:38 | 38.97933 | -77.54504 | 2914 ft | 229 kts | 308° |
| 2026-05-04 19:38 | 38.98986 | -77.56136 | 3313 ft | 247 kts | 308° |
| 2026-05-04 19:38 | 39.00143 | -77.57895 | 3715 ft | 267 kts | 309° |
| 2026-05-04 19:38 | 39.01398 | -77.59709 | 4437 ft | 273 kts | 314° |
| 2026-05-04 19:39 | 39.03002 | -77.60987 | 5283 ft | 279 kts | 341° |
| 2026-05-04 19:39 | 39.04932 | -77.61296 | 6213 ft | 276 kts | 359° |
| 2026-05-04 19:39 | 39.06846 | -77.61166 | 7131 ft | 278 kts | 3° |
| 2026-05-04 19:39 | 39.08793 | -77.60909 | 7831 ft | 284 kts | 5° |
| 2026-05-04 19:40 | 39.10775 | -77.60616 | 8568 ft | 288 kts | 5° |
| 2026-05-04 19:40 | 39.12778 | -77.60326 | 9327 ft | 292 kts | 5° |
| 2026-05-04 19:40 | 39.14801 | -77.60040 | 10091 ft | 294 kts | 4° |
| 2026-05-04 19:40 | 39.16877 | -77.59759 | 10520 ft | 311 kts | 4° |
| 2026-05-04 19:41 | 39.19109 | -77.59505 | 10698 ft | 332 kts | 359° |
| 2026-05-04 19:41 | 39.21421 | -77.60043 | 10874 ft | 345 kts | 334° |
| 2026-05-04 19:41 | 39.23519 | -77.61592 | 11432 ft | 350 kts | 326° |
| 2026-05-04 19:41 | 39.25577 | -77.63296 | 12184 ft | 352 kts | 325° |
| 2026-05-04 19:42 | 39.27634 | -77.65011 | 12960 ft | 353 kts | 326° |
| 2026-05-04 19:42 | 39.29716 | -77.66727 | 13639 ft | 358 kts | 326° |
| 2026-05-04 19:42 | 39.31832 | -77.68445 | 14330 ft | 361 kts | 326° |
| 2026-05-04 19:42 | 39.33973 | -77.70167 | 15055 ft | 364 kts | 327° |
| 2026-05-04 19:43 | 39.36138 | -77.71889 | 15753 ft | 367 kts | 327° |
| 2026-05-04 19:43 | 39.38298 | -77.73601 | 16429 ft | 371 kts | 327° |
| 2026-05-04 19:43 | 39.40509 | -77.75350 | 17095 ft | 374 kts | 327° |
| 2026-05-04 19:43 | 39.42741 | -77.77115 | 17741 ft | 377 kts | 327° |
| 2026-05-04 19:44 | 39.44988 | -77.78892 | 18379 ft | 381 kts | 327° |
| 2026-05-04 19:44 | 39.47255 | -77.80686 | 18996 ft | 384 kts | 327° |
| 2026-05-04 19:44 | 39.49543 | -77.82497 | 19601 ft | 387 kts | 327° |
| 2026-05-04 19:44 | 39.51847 | -77.84322 | 20175 ft | 390 kts | 327° |
| 2026-05-04 19:45 | 39.54174 | -77.86167 | 20729 ft | 394 kts | 327° |
| 2026-05-04 19:45 | 39.56514 | -77.88026 | 21288 ft | 396 kts | 327° |
| 2026-05-04 19:45 | 39.58867 | -77.89896 | 21823 ft | 399 kts | 327° |
| 2026-05-04 19:45 | 39.61247 | -77.91788 | 22335 ft | 402 kts | 327° |
| 2026-05-04 19:46 | 39.63639 | -77.93691 | 22825 ft | 406 kts | 327° |
| 2026-05-04 19:46 | 39.66045 | -77.95608 | 23333 ft | 408 kts | 327° |
| 2026-05-04 19:46 | 39.68482 | -77.97541 | 23777 ft | 411 kts | 327° |
| 2026-05-04 19:46 | 39.70926 | -77.99492 | 24207 ft | 413 kts | 327° |
| 2026-05-04 19:47 | 39.73378 | -78.01453 | 24648 ft | 416 kts | 327° |
| 2026-05-04 19:47 | 39.75851 | -78.03433 | 25094 ft | 418 kts | 327° |
| 2026-05-04 19:47 | 39.78334 | -78.05421 | 25527 ft | 421 kts | 327° |
| 2026-05-04 19:47 | 39.80837 | -78.07424 | 25936 ft | 423 kts | 327° |
| 2026-05-04 19:48 | 39.82513 | -78.08814 | 26205 ft | 424 kts | 323° |
| 2026-05-04 19:48 | 39.84789 | -78.11246 | 26599 ft | 424 kts | 314° |
| 2026-05-04 19:48 | 39.86730 | -78.14079 | 26985 ft | 425 kts | 309° |
| 2026-05-04 19:48 | 39.88649 | -78.17083 | 27359 ft | 427 kts | 309° |
| 2026-05-04 19:49 | 39.90552 | -78.20063 | 27822 ft | 427 kts | 309° |
| 2026-05-04 19:49 | 39.92429 | -78.22975 | 28340 ft | 424 kts | 309° |
| 2026-05-04 19:49 | 39.94326 | -78.25896 | 28837 ft | 422 kts | 310° |
| 2026-05-04 19:49 | 39.96222 | -78.28803 | 29298 ft | 421 kts | 310° |
| 2026-05-04 19:50 | 39.98114 | -78.31704 | 29763 ft | 419 kts | 310° |
| 2026-05-04 19:50 | 40.00001 | -78.34595 | 30219 ft | 418 kts | 310° |
| 2026-05-04 19:50 | 40.01883 | -78.37471 | 30665 ft | 416 kts | 310° |
| 2026-05-04 19:50 | 40.03762 | -78.40342 | 31040 ft | 416 kts | 310° |
| 2026-05-04 19:51 | 40.05637 | -78.43211 | 31431 ft | 415 kts | 310° |
| 2026-05-04 19:51 | 40.07513 | -78.46083 | 31820 ft | 415 kts | 310° |
| 2026-05-04 19:51 | 40.09389 | -78.48960 | 31850 ft | 419 kts | 310° |
| 2026-05-04 19:52 | 40.13168 | -78.54766 | 31859 ft | 417 kts | 310° |
| 2026-05-04 19:52 | 40.16892 | -78.60497 | 31871 ft | 413 kts | 310° |
| 2026-05-04 19:53 | 40.20618 | -78.66244 | 31888 ft | 414 kts | 310° |
| 2026-05-04 19:53 | 40.24348 | -78.72006 | 31891 ft | 416 kts | 310° |
| 2026-05-04 19:54 | 40.28085 | -78.77790 | 31901 ft | 416 kts | 310° |
| 2026-05-04 19:54 | 40.31827 | -78.83581 | 31896 ft | 417 kts | 310° |
| 2026-05-04 19:55 | 40.35764 | -78.89160 | 31903 ft | 417 kts | 313° |
| 2026-05-04 19:55 | 40.39782 | -78.94627 | 31892 ft | 416 kts | 313° |
| 2026-05-04 19:56 | 40.43781 | -79.00098 | 31892 ft | 415 kts | 313° |
| 2026-05-04 19:56 | 40.47758 | -79.05589 | 31879 ft | 415 kts | 313° |
| 2026-05-04 19:57 | 40.51714 | -79.11080 | 31873 ft | 414 kts | 313° |
| 2026-05-04 19:57 | 40.55662 | -79.16574 | 31869 ft | 413 kts | 313° |
| 2026-05-04 19:58 | 40.59582 | -79.22040 | 31858 ft | 413 kts | 313° |
| 2026-05-04 19:58 | 40.63520 | -79.27539 | 31856 ft | 412 kts | 313° |
| 2026-05-04 19:59 | 40.67451 | -79.33036 | 31868 ft | 412 kts | 313° |
| 2026-05-04 19:59 | 40.71385 | -79.38550 | 31863 ft | 413 kts | 313° |
| 2026-05-04 20:00 | 40.75309 | -79.44060 | 31862 ft | 413 kts | 312° |
| 2026-05-04 20:00 | 40.79238 | -79.49588 | 31852 ft | 413 kts | 312° |
| 2026-05-04 20:01 | 40.83167 | -79.55126 | 31847 ft | 413 kts | 312° |
| 2026-05-04 20:01 | 40.87089 | -79.60661 | 31847 ft | 413 kts | 312° |
| 2026-05-04 20:02 | 40.90950 | -79.66123 | 31470 ft | 399 kts | 312° |
| 2026-05-04 20:02 | 40.92832 | -79.68789 | 31079 ft | 395 kts | 312° |
| 2026-05-04 20:02 | 40.94700 | -79.71437 | 30679 ft | 391 kts | 312° |
| 2026-05-04 20:02 | 40.96547 | -79.74058 | 30280 ft | 389 kts | 312° |
| 2026-05-04 20:03 | 40.98379 | -79.76661 | 29880 ft | 386 kts | 312° |
| 2026-05-04 20:03 | 41.00207 | -79.79260 | 29480 ft | 383 kts | 312° |
| 2026-05-04 20:03 | 41.02012 | -79.81828 | 29068 ft | 380 kts | 311° |
| 2026-05-04 20:03 | 41.03807 | -79.84385 | 28647 ft | 377 kts | 311° |
| 2026-05-04 20:04 | 41.05586 | -79.86919 | 28233 ft | 375 kts | 311° |
| 2026-05-04 20:04 | 41.07355 | -79.89443 | 27820 ft | 372 kts | 311° |
| 2026-05-04 20:04 | 41.09108 | -79.91946 | 27407 ft | 370 kts | 311° |
| 2026-05-04 20:04 | 41.10833 | -79.94411 | 27003 ft | 368 kts | 311° |
| 2026-05-04 20:05 | 41.12567 | -79.96891 | 26604 ft | 365 kts | 311° |
| 2026-05-04 20:05 | 41.14287 | -79.99353 | 26203 ft | 363 kts | 311° |
| 2026-05-04 20:05 | 41.16018 | -80.01833 | 25791 ft | 361 kts | 311° |
| 2026-05-04 20:05 | 41.17695 | -80.04237 | 25401 ft | 359 kts | 311° |
| 2026-05-04 20:06 | 41.19388 | -80.06665 | 24987 ft | 357 kts | 311° |
| 2026-05-04 20:06 | 41.21070 | -80.09081 | 24597 ft | 355 kts | 311° |
| 2026-05-04 20:06 | 41.22739 | -80.11479 | 24200 ft | 353 kts | 311° |
| 2026-05-04 20:06 | 41.24341 | -80.13942 | 23838 ft | 349 kts | 302° |
| 2026-05-04 20:07 | 41.25425 | -80.16801 | 23385 ft | 348 kts | 291° |
| 2026-05-04 20:07 | 41.26325 | -80.19818 | 22746 ft | 353 kts | 290° |
| 2026-05-04 20:07 | 41.27199 | -80.22858 | 22307 ft | 353 kts | 290° |
| 2026-05-04 20:07 | 41.28074 | -80.25894 | 21995 ft | 349 kts | 290° |
| 2026-05-04 20:08 | 41.28950 | -80.28898 | 21641 ft | 347 kts | 291° |
| 2026-05-04 20:08 | 41.29827 | -80.31873 | 21265 ft | 345 kts | 291° |
| 2026-05-04 20:08 | 41.30704 | -80.34832 | 20872 ft | 343 kts | 291° |
| 2026-05-04 20:08 | 41.31581 | -80.37780 | 20479 ft | 342 kts | 291° |
| 2026-05-04 20:09 | 41.32450 | -80.40701 | 20069 ft | 338 kts | 291° |
| 2026-05-04 20:09 | 41.33311 | -80.43595 | 19559 ft | 336 kts | 291° |
| 2026-05-04 20:09 | 41.34171 | -80.46483 | 19011 ft | 335 kts | 291° |
| 2026-05-04 20:09 | 41.35025 | -80.49354 | 18497 ft | 333 kts | 291° |
| 2026-05-04 20:10 | 41.35873 | -80.52208 | 18009 ft | 331 kts | 291° |
| 2026-05-04 20:10 | 41.36722 | -80.55065 | 17553 ft | 333 kts | 291° |
| 2026-05-04 20:10 | 41.37571 | -80.57927 | 17204 ft | 331 kts | 291° |
| 2026-05-04 20:10 | 41.38405 | -80.60744 | 17006 ft | 324 kts | 291° |
| 2026-05-04 20:11 | 41.39230 | -80.63532 | 16666 ft | 323 kts | 291° |
| 2026-05-04 20:11 | 41.40052 | -80.66316 | 16286 ft | 322 kts | 291° |
| 2026-05-04 20:11 | 41.40871 | -80.69088 | 15924 ft | 321 kts | 290° |
| 2026-05-04 20:11 | 41.41684 | -80.71856 | 15531 ft | 321 kts | 290° |
| 2026-05-04 20:12 | 41.42496 | -80.74628 | 15149 ft | 321 kts | 290° |
| 2026-05-04 20:12 | 41.43304 | -80.77388 | 14762 ft | 320 kts | 290° |
| 2026-05-04 20:12 | 41.44112 | -80.80151 | 14375 ft | 319 kts | 290° |
| 2026-05-04 20:12 | 41.44918 | -80.82908 | 13981 ft | 319 kts | 290° |
| 2026-05-04 20:13 | 41.45723 | -80.85668 | 13596 ft | 319 kts | 290° |
| 2026-05-04 20:13 | 41.46525 | -80.88419 | 13227 ft | 318 kts | 290° |
| 2026-05-04 20:13 | 41.47311 | -80.91123 | 12838 ft | 317 kts | 290° |
| 2026-05-04 20:13 | 41.48107 | -80.93858 | 12453 ft | 316 kts | 290° |
| 2026-05-04 20:14 | 41.48904 | -80.96594 | 12070 ft | 316 kts | 290° |
| 2026-05-04 20:14 | 41.49696 | -80.99319 | 11686 ft | 315 kts | 290° |
| 2026-05-04 20:14 | 41.50483 | -81.02029 | 11309 ft | 314 kts | 290° |
| 2026-05-04 20:14 | 41.51262 | -81.04741 | 10935 ft | 313 kts | 287° |
| 2026-05-04 20:15 | 41.51613 | -81.07570 | 10539 ft | 310 kts | 267° |
| 2026-05-04 20:15 | 41.51480 | -81.10433 | 10176 ft | 308 kts | 265° |
| 2026-05-04 20:15 | 41.51342 | -81.13265 | 9934 ft | 302 kts | 265° |
| 2026-05-04 20:15 | 41.51214 | -81.15991 | 9935 ft | 288 kts | 265° |
| 2026-05-04 20:16 | 41.51099 | -81.18597 | 9862 ft | 274 kts | 266° |
| 2026-05-04 20:16 | 41.50992 | -81.21086 | 9616 ft | 266 kts | 265° |
| 2026-05-04 20:16 | 41.50884 | -81.23547 | 9203 ft | 266 kts | 265° |
| 2026-05-04 20:16 | 41.50779 | -81.26010 | 8760 ft | 266 kts | 265° |
| 2026-05-04 20:17 | 41.50676 | -81.28465 | 8362 ft | 264 kts | 265° |
| 2026-05-04 20:17 | 41.50573 | -81.30907 | 7974 ft | 262 kts | 265° |
| 2026-05-04 20:17 | 41.50471 | -81.33323 | 7572 ft | 261 kts | 265° |
| 2026-05-04 20:17 | 41.50368 | -81.35731 | 7178 ft | 259 kts | 265° |
| 2026-05-04 20:18 | 41.50264 | -81.38126 | 6763 ft | 258 kts | 265° |
| 2026-05-04 20:18 | 41.50162 | -81.40515 | 6353 ft | 259 kts | 265° |
| 2026-05-04 20:18 | 41.50060 | -81.42928 | 6027 ft | 259 kts | 266° |
| 2026-05-04 20:18 | 41.50081 | -81.45308 | 5844 ft | 255 kts | 270° |
| 2026-05-04 20:19 | 41.50154 | -81.47650 | 5684 ft | 251 kts | 270° |
| 2026-05-04 20:19 | 41.50225 | -81.49953 | 5511 ft | 246 kts | 270° |
| 2026-05-04 20:19 | 41.50285 | -81.52215 | 5353 ft | 242 kts | 270° |
| 2026-05-04 20:19 | 41.50339 | -81.54434 | 5217 ft | 236 kts | 270° |
| 2026-05-04 20:20 | 41.50390 | -81.56608 | 5057 ft | 232 kts | 270° |
| 2026-05-04 20:20 | 41.50437 | -81.58741 | 4842 ft | 230 kts | 270° |
| 2026-05-04 20:20 | 41.50485 | -81.60851 | 4627 ft | 224 kts | 270° |
| 2026-05-04 20:20 | 41.50531 | -81.62888 | 4367 ft | 221 kts | 270° |
| 2026-05-04 20:21 | 41.50579 | -81.64946 | 4109 ft | 218 kts | 269° |
| 2026-05-04 20:21 | 41.50465 | -81.66931 | 3830 ft | 212 kts | 252° |
| 2026-05-04 20:21 | 41.49551 | -81.70551 | 3369 ft | 202 kts | 250° |
| 2026-05-04 20:22 | 41.49121 | -81.72317 | 3127 ft | 199 kts | 250° |
| 2026-05-04 20:22 | 41.48471 | -81.73903 | 2891 ft | 194 kts | 229° |
| 2026-05-04 20:22 | 41.47594 | -81.75244 | 2623 ft | 189 kts | 230° |
| 2026-05-04 20:22 | 41.46798 | -81.76552 | 2401 ft | 177 kts | 230° |
| 2026-05-04 20:23 | 41.46040 | -81.77765 | 2154 ft | 163 kts | 229° |
| 2026-05-04 20:23 | 41.45341 | -81.78875 | 1941 ft | 152 kts | 229° |
| 2026-05-04 20:23 | 41.44670 | -81.79948 | 1730 ft | 149 kts | 229° |
| 2026-05-04 20:23 | 41.43996 | -81.80994 | 1578 ft | 148 kts | 229° |
| 2026-05-04 20:24 | 41.43344 | -81.82044 | 1408 ft | 148 kts | 229° |
| 2026-05-04 20:24 | 41.42668 | -81.83089 | 1213 ft | 149 kts | 231° |
| 2026-05-04 20:24 | 41.42000 | -81.84152 | 996 ft | 152 kts | 231° |
| 2026-05-04 20:24 | 41.41329 | -81.85227 | 806 ft | 147 kts | 231° |
| 2026-05-04 20:25 | 41.40742 | -81.86157 | 796 ft | 105 kts | 230° |
| 2026-05-04 20:25 | 41.40423 | -81.86663 | 794 ft | 45 kts | 229° |
| 2026-05-04 20:25 | 41.40259 | -81.86920 | 796 ft | 23 kts | 230° |
| 2026-05-04 20:25 | 41.40136 | -81.87030 | 796 ft | 17 kts | 199° |
| 2026-05-04 20:26 | 41.40031 | -81.87002 | 795 ft | 16 kts | 140° |
| 2026-05-04 20:26 | 41.39946 | -81.86908 | 795 ft | 16 kts | 140° |
| 2026-05-04 20:26 | 41.39866 | -81.86815 | 794 ft | 15 kts | 139° |
| 2026-05-04 20:26 | 41.39788 | -81.86728 | 795 ft | 14 kts | 141° |
| 2026-05-04 20:27 | 41.39735 | -81.86634 | 794 ft | 13 kts | 80° |
| 2026-05-04 20:27 | 41.39786 | -81.86539 | 794 ft | 13 kts | 50° |
| 2026-05-04 20:27 | 41.39842 | -81.86450 | 794 ft | 12 kts | 50° |
| 2026-05-04 20:27 | 41.39897 | -81.86365 | 794 ft | 12 kts | 49° |
| 2026-05-04 20:28 | 41.39950 | -81.86282 | 794 ft | 12 kts | 51° |
| 2026-05-04 20:28 | 41.40004 | -81.86193 | 794 ft | 14 kts | 50° |
| 2026-05-04 20:28 | 41.40088 | -81.86063 | 794 ft | 22 kts | 50° |
| 2026-05-04 20:28 | 41.40210 | -81.85951 | 794 ft | 22 kts | 8° |
| 2026-05-04 20:29 | 41.40337 | -81.85867 | 794 ft | 21 kts | 49° |
| 2026-05-04 20:29 | 41.40432 | -81.85717 | 795 ft | 21 kts | 49° |
| 2026-05-04 20:29 | 41.40523 | -81.85574 | 794 ft | 20 kts | 50° |
| 2026-05-04 20:29 | 41.40609 | -81.85435 | 794 ft | 19 kts | 50° |
| 2026-05-04 20:30 | 41.40651 | -81.85274 | 794 ft | 19 kts | 93° |
| 2026-05-04 20:30 | 41.40644 | -81.85106 | 794 ft | 18 kts | 93° |
| 2026-05-04 20:30 | 41.40636 | -81.84940 | 794 ft | 17 kts | 94° |
| 2026-05-04 20:30 | 41.40629 | -81.84784 | 794 ft | 17 kts | 92° |
| 2026-05-04 20:31 | 41.40624 | -81.84629 | 794 ft | 16 kts | 93° |
| 2026-05-04 20:31 | 41.40618 | -81.84483 | 794 ft | 16 kts | 93° |
| 2026-05-04 20:31 | 41.40617 | -81.84345 | 794 ft | 14 kts | 77° |
| 2026-05-04 20:31 | 41.40652 | -81.84268 | 794 ft | 7 kts | 41° |
| 2026-05-04 20:32 | 41.40668 | -81.84250 | 794 ft | 0 kts | 38° |
| 2026-05-04 20:32 | 41.40669 | -81.84249 | 794 ft | 0 kts | 38° |